Aérodrome :
LOGIN :

S'inscrire | Disclaimer

   EN    FR    IT 

 










Légende :    VFR   VFR Marginal   IFR   IFR Intensif   IFR Très Intensif
Visi : 
Plafond : 
>= 8 km
>= 3000ft
5 à 8 km
1000 à 3000 ft
1500m à 5 km
500 à 1000 ft
800 à 1500m
200 à 500 ft
< 800m
< 200 ft
Symboles :   Orages  Brouillard  Fortes neiges  Fortes précipitations  Vent > 20 kt
SIGMETs :   Divers  Orages  Givrage  Turbulence  Onde Orograph.  Cendres Volcan.







- Altitude de l'aérodrome : 989 ft
- Code IATA : TRN


LIMF - Torino Caselle

DERNIER METAR :
  • 181920Z VRB01KT 0050 R36/0225N FZFG NSC M03/M03 Q1027

METARs EXPIRÉS :
  • 181850Z 12003KT 0050 R36/0250N FZFG NSC M03/M03 Q1027
  • 181820Z 11003KT 0050 R36/0325N FZFG NSC M03/M03 Q1027
  • 181750Z 13003KT 1200 0400SE R36/0450V0750D PRFG NSC M01/M01 Q1026
  • 181720Z VRB01KT 3000 BR NSC 01/00 Q1026
  • 181650Z 02004KT 3000 BR NSC 02/01 Q1026

TAF TAF LIMF
Valide du 18 à 18h jusqu'au 19 à 18h UTC


181700Z 1818/1918 VRB05KT 1500 BR NSC
BECMG 1819/1821 0200 FZFG BKN002
BECMG 1909/1912 2000 BR BKN025
BECMG 1913/1915 0800 SN OVC005
Pas de NOTAMs connus pour ce terrain.



MET'MAP, la Météo Aéronautique d'un coup d'oeil ! - Copyright ORBIFLY Décembre 2007 - Disclaimer

ORBIFLY MET'MAP TEAM :

Programmation & Développement : Alexandra Zaïnal
Conception & Développement : Baudouin d'Aumeries
Co-Programmation & Développement : Marc-Olivier Méhu
Soutien technique & logistique : Manuel Goepfert

Contact : metmap@orbifly.com




SOURCES & CREDITS :

   NOAA